sensor_id;sensor_type;location;lat;lon;timestamp;pressure;altitude;pressure_sealevel;temperature;humidity
8398;BME280;4236;54.504;9.588;2023-01-31T00:01:29;101443.44;;;2.87;100.00
8398;BME280;4236;54.504;9.588;2023-01-31T00:03:59;101449.06;;;2.82;100.00
8398;BME280;4236;54.504;9.588;2023-01-31T00:06:29;101454.59;;;2.79;100.00
8398;BME280;4236;54.504;9.588;2023-01-31T00:09:00;101466.81;;;2.80;100.00
8398;BME280;4236;54.504;9.588;2023-01-31T00:11:29;101480.69;;;2.82;100.00
8398;BME280;4236;54.504;9.588;2023-01-31T00:13:58;101482.38;;;2.83;100.00
8398;BME280;4236;54.504;9.588;2023-01-31T00:16:26;101480.31;;;2.87;100.00
8398;BME280;4236;54.504;9.588;2023-01-31T00:18:54;101489.03;;;2.87;100.00
8398;BME280;4236;54.504;9.588;2023-01-31T00:21:23;101477.53;;;2.88;100.00
8398;BME280;4236;54.504;9.588;2023-01-31T00:23:52;101486.28;;;2.89;100.00
8398;BME280;4236;54.504;9.588;2023-01-31T00:26:23;101468.78;;;2.88;100.00
8398;BME280;4236;54.504;9.588;2023-01-31T00:28:53;101489.88;;;2.88;100.00
8398;BME280;4236;54.504;9.588;2023-01-31T00:31:22;101492.38;;;2.89;100.00
8398;BME280;4236;54.504;9.588;2023-01-31T00:33:51;101485.31;;;2.90;100.00
8398;BME280;4236;54.504;9.588;2023-01-31T00:36:21;101481.13;;;2.87;100.00
8398;BME280;4236;54.504;9.588;2023-01-31T00:38:51;101485.59;;;2.87;100.00
8398;BME280;4236;54.504;9.588;2023-01-31T00:41:20;101497.78;;;2.88;100.00
8398;BME280;4236;54.504;9.588;2023-01-31T00:43:50;101497.19;;;2.84;100.00
8398;BME280;4236;54.504;9.588;2023-01-31T00:46:18;101497.59;;;2.79;100.00
8398;BME280;4236;54.504;9.588;2023-01-31T00:48:46;101486.66;;;2.84;100.00
8398;BME280;4236;54.504;9.588;2023-01-31T00:51:15;101481.72;;;2.91;100.00
8398;BME280;4236;54.504;9.588;2023-01-31T00:53:43;101488.97;;;2.98;100.00
8398;BME280;4236;54.504;9.588;2023-01-31T00:56:13;101480.56;;;3.04;100.00
8398;BME280;4236;54.504;9.588;2023-01-31T00:58:41;101477.53;;;3.09;100.00
8398;BME280;4236;54.504;9.588;2023-01-31T01:01:12;101476.69;;;3.08;100.00
8398;BME280;4236;54.504;9.588;2023-01-31T01:03:41;101489.59;;;3.11;100.00
8398;BME280;4236;54.504;9.588;2023-01-31T01:06:10;101489.47;;;3.13;100.00
8398;BME280;4236;54.504;9.588;2023-01-31T01:08:39;101497.56;;;3.21;100.00
8398;BME280;4236;54.504;9.588;2023-01-31T01:11:09;101496.34;;;3.25;100.00
8398;BME280;4236;54.504;9.588;2023-01-31T01:13:38;101499.56;;;3.28;100.00
8398;BME280;4236;54.504;9.588;2023-01-31T01:16:07;101498.56;;;3.29;100.00
8398;BME280;4236;54.504;9.588;2023-01-31T01:18:36;101491.25;;;3.33;100.00
8398;BME280;4236;54.504;9.588;2023-01-31T01:21:05;101507.06;;;3.33;100.00
8398;BME280;4236;54.504;9.588;2023-01-31T01:23:33;101495.56;;;3.34;100.00
8398;BME280;4236;54.504;9.588;2023-01-31T01:26:01;101494.72;;;3.33;100.00
8398;BME280;4236;54.504;9.588;2023-01-31T01:28:32;101504.41;;;3.33;100.00
8398;BME280;4236;54.504;9.588;2023-01-31T01:31:04;101508.00;;;3.32;100.00
8398;BME280;4236;54.504;9.588;2023-01-31T01:33:32;101509.25;;;3.28;100.00
8398;BME280;4236;54.504;9.588;2023-01-31T01:36:02;101491.06;;;3.25;100.00
8398;BME280;4236;54.504;9.588;2023-01-31T01:38:30;101500.78;;;3.24;100.00
8398;BME280;4236;54.504;9.588;2023-01-31T01:40:57;101508.16;;;3.30;100.00
8398;BME280;4236;54.504;9.588;2023-01-31T01:43:38;101501.53;;;3.36;100.00
8398;BME280;4236;54.504;9.588;2023-01-31T01:46:07;101501.38;;;3.38;100.00
8398;BME280;4236;54.504;9.588;2023-01-31T01:48:37;101498.03;;;3.35;100.00
8398;BME280;4236;54.504;9.588;2023-01-31T01:51:06;101497.94;;;3.37;100.00
8398;BME280;4236;54.504;9.588;2023-01-31T01:53:38;101500.69;;;3.35;100.00
8398;BME280;4236;54.504;9.588;2023-01-31T01:56:10;101498.88;;;3.36;100.00
8398;BME280;4236;54.504;9.588;2023-01-31T01:58:45;101497.34;;;3.33;100.00
8398;BME280;4236;54.504;9.588;2023-01-31T02:01:14;101480.00;;;3.31;100.00
8398;BME280;4236;54.504;9.588;2023-01-31T02:03:43;101485.38;;;3.29;100.00
8398;BME280;4236;54.504;9.588;2023-01-31T02:06:13;101479.69;;;3.24;100.00
8398;BME280;4236;54.504;9.588;2023-01-31T02:08:41;101484.25;;;3.22;100.00
8398;BME280;4236;54.504;9.588;2023-01-31T02:11:15;101492.16;;;3.22;100.00
8398;BME280;4236;54.504;9.588;2023-01-31T02:13:46;101497.28;;;3.24;100.00
8398;BME280;4236;54.504;9.588;2023-01-31T02:16:14;101492.72;;;3.26;100.00
8398;BME280;4236;54.504;9.588;2023-01-31T02:18:43;101489.81;;;3.29;100.00
8398;BME280;4236;54.504;9.588;2023-01-31T02:28:00;101490.13;;;3.35;100.00
8398;BME280;4236;54.504;9.588;2023-01-31T02:33:35;101496.09;;;3.38;100.00
8398;BME280;4236;54.504;9.588;2023-01-31T02:36:14;101506.38;;;3.41;100.00
8398;BME280;4236;54.504;9.588;2023-01-31T02:38:53;101496.56;;;3.43;100.00
8398;BME280;4236;54.504;9.588;2023-01-31T02:41:28;101500.72;;;3.45;100.00
8398;BME280;4236;54.504;9.588;2023-01-31T02:44:04;101497.94;;;3.47;100.00
8398;BME280;4236;54.504;9.588;2023-01-31T02:47:15;101494.50;;;3.46;100.00
8398;BME280;4236;54.504;9.588;2023-01-31T02:49:50;101492.25;;;3.42;100.00
8398;BME280;4236;54.504;9.588;2023-01-31T02:52:27;101494.31;;;3.38;100.00
8398;BME280;4236;54.504;9.588;2023-01-31T02:55:05;101497.94;;;3.37;100.00
8398;BME280;4236;54.504;9.588;2023-01-31T02:57:54;101496.50;;;3.33;100.00
8398;BME280;4236;54.504;9.588;2023-01-31T03:00:24;101503.72;;;3.31;100.00
8398;BME280;4236;54.504;9.588;2023-01-31T03:02:53;101502.03;;;3.30;100.00
8398;BME280;4236;54.504;9.588;2023-01-31T03:05:23;101497.88;;;3.27;100.00
8398;BME280;4236;54.504;9.588;2023-01-31T03:07:54;101498.97;;;3.25;100.00
8398;BME280;4236;54.504;9.588;2023-01-31T03:13:28;101491.06;;;3.25;100.00
8398;BME280;4236;54.504;9.588;2023-01-31T03:16:07;101497.19;;;3.25;100.00
8398;BME280;4236;54.504;9.588;2023-01-31T03:19:01;101497.88;;;3.27;100.00
8398;BME280;4236;54.504;9.588;2023-01-31T03:21:43;101494.03;;;3.31;100.00
8398;BME280;4236;54.504;9.588;2023-01-31T03:24:14;101496.25;;;3.36;100.00
8398;BME280;4236;54.504;9.588;2023-01-31T03:26:44;101494.03;;;3.41;100.00
8398;BME280;4236;54.504;9.588;2023-01-31T03:29:14;101480.59;;;3.44;100.00
8398;BME280;4236;54.504;9.588;2023-01-31T03:31:46;101493.50;;;3.47;100.00
8398;BME280;4236;54.504;9.588;2023-01-31T03:34:16;101486.19;;;3.51;100.00
8398;BME280;4236;54.504;9.588;2023-01-31T03:36:51;101479.81;;;3.53;100.00
8398;BME280;4236;54.504;9.588;2023-01-31T03:39:28;101479.69;;;3.55;100.00
8398;BME280;4236;54.504;9.588;2023-01-31T03:42:03;101489.13;;;3.57;100.00
8398;BME280;4236;54.504;9.588;2023-01-31T03:44:39;101479.41;;;3.58;100.00
8398;BME280;4236;54.504;9.588;2023-01-31T03:47:13;101468.59;;;3.61;100.00
8398;BME280;4236;54.504;9.588;2023-01-31T03:49:44;101470.97;;;3.64;100.00
8398;BME280;4236;54.504;9.588;2023-01-31T03:52:17;101459.31;;;3.66;100.00
8398;BME280;4236;54.504;9.588;2023-01-31T03:54:52;101449.34;;;3.70;100.00
8398;BME280;4236;54.504;9.588;2023-01-31T03:57:24;101447.38;;;3.72;100.00
8398;BME280;4236;54.504;9.588;2023-01-31T03:59:57;101451.97;;;3.70;100.00
8398;BME280;4236;54.504;9.588;2023-01-31T04:02:31;101445.16;;;3.67;100.00
8398;BME280;4236;54.504;9.588;2023-01-31T04:05:04;101449.72;;;3.65;100.00
8398;BME280;4236;54.504;9.588;2023-01-31T04:07:35;101441.97;;;3.64;100.00
8398;BME280;4236;54.504;9.588;2023-01-31T04:10:05;101432.94;;;3.66;100.00
8398;BME280;4236;54.504;9.588;2023-01-31T04:12:37;101430.88;;;3.70;100.00
8398;BME280;4236;54.504;9.588;2023-01-31T04:15:06;101427.13;;;3.72;100.00
8398;BME280;4236;54.504;9.588;2023-01-31T04:17:34;101430.59;;;3.73;100.00
8398;BME280;4236;54.504;9.588;2023-01-31T04:20:03;101434.31;;;3.70;100.00
8398;BME280;4236;54.504;9.588;2023-01-31T04:22:31;101437.09;;;3.69;100.00
8398;BME280;4236;54.504;9.588;2023-01-31T04:25:00;101434.75;;;3.66;100.00
8398;BME280;4236;54.504;9.588;2023-01-31T04:27:28;101447.81;;;3.67;100.00
8398;BME280;4236;54.504;9.588;2023-01-31T04:29:55;101454.16;;;3.65;100.00
8398;BME280;4236;54.504;9.588;2023-01-31T04:32:23;101457.63;;;3.65;100.00
8398;BME280;4236;54.504;9.588;2023-01-31T04:34:51;101455.84;;;3.66;100.00
8398;BME280;4236;54.504;9.588;2023-01-31T04:37:19;101446.69;;;3.70;100.00
8398;BME280;4236;54.504;9.588;2023-01-31T04:39:46;101449.06;;;3.73;100.00
8398;BME280;4236;54.504;9.588;2023-01-31T04:42:16;101454.19;;;3.74;100.00
8398;BME280;4236;54.504;9.588;2023-01-31T04:44:43;101453.06;;;3.77;100.00
8398;BME280;4236;54.504;9.588;2023-01-31T04:47:11;101451.00;;;3.80;100.00
8398;BME280;4236;54.504;9.588;2023-01-31T04:49:39;101449.06;;;3.82;100.00
8398;BME280;4236;54.504;9.588;2023-01-31T04:52:06;101446.16;;;3.85;100.00
8398;BME280;4236;54.504;9.588;2023-01-31T04:54:35;101442.56;;;3.86;100.00
8398;BME280;4236;54.504;9.588;2023-01-31T04:57:03;101431.44;;;3.92;100.00
8398;BME280;4236;54.504;9.588;2023-01-31T04:59:32;101430.63;;;3.92;100.00
8398;BME280;4236;54.504;9.588;2023-01-31T05:02:00;101438.41;;;3.94;100.00
8398;BME280;4236;54.504;9.588;2023-01-31T05:04:27;101432.03;;;3.96;100.00
8398;BME280;4236;54.504;9.588;2023-01-31T05:06:55;101424.09;;;3.96;100.00
8398;BME280;4236;54.504;9.588;2023-01-31T05:09:23;101421.31;;;3.98;100.00
8398;BME280;4236;54.504;9.588;2023-01-31T05:11:51;101419.22;;;4.01;100.00
8398;BME280;4236;54.504;9.588;2023-01-31T05:14:19;101414.78;;;4.02;100.00
8398;BME280;4236;54.504;9.588;2023-01-31T05:16:48;101404.13;;;4.03;100.00
8398;BME280;4236;54.504;9.588;2023-01-31T05:19:16;101406.03;;;4.01;100.00
8398;BME280;4236;54.504;9.588;2023-01-31T05:21:44;101394.53;;;4.02;100.00
8398;BME280;4236;54.504;9.588;2023-01-31T05:24:26;101399.66;;;4.04;100.00
8398;BME280;4236;54.504;9.588;2023-01-31T05:26:54;101397.16;;;4.02;100.00
8398;BME280;4236;54.504;9.588;2023-01-31T05:29:24;101386.72;;;4.01;100.00
8398;BME280;4236;54.504;9.588;2023-01-31T05:31:54;101388.69;;;3.99;100.00
8398;BME280;4236;54.504;9.588;2023-01-31T05:34:23;101379.25;;;3.96;100.00
8398;BME280;4236;54.504;9.588;2023-01-31T05:36:51;101379.25;;;3.96;100.00
8398;BME280;4236;54.504;9.588;2023-01-31T05:39:19;101380.34;;;3.94;100.00
8398;BME280;4236;54.504;9.588;2023-01-31T05:41:47;101373.56;;;3.91;100.00
8398;BME280;4236;54.504;9.588;2023-01-31T05:44:15;101377.44;;;3.87;100.00
8398;BME280;4236;54.504;9.588;2023-01-31T05:46:42;101372.16;;;3.87;100.00
8398;BME280;4236;54.504;9.588;2023-01-31T05:49:12;101360.91;;;3.85;100.00
8398;BME280;4236;54.504;9.588;2023-01-31T05:51:40;101358.56;;;3.82;100.00
8398;BME280;4236;54.504;9.588;2023-01-31T05:54:09;101354.81;;;3.84;100.00
8398;BME280;4236;54.504;9.588;2023-01-31T05:56:37;101357.56;;;3.83;100.00
8398;BME280;4236;54.504;9.588;2023-01-31T05:59:05;101350.47;;;3.83;100.00
8398;BME280;4236;54.504;9.588;2023-01-31T06:01:33;101342.56;;;3.83;100.00
8398;BME280;4236;54.504;9.588;2023-01-31T06:04:00;101343.53;;;3.82;100.00
8398;BME280;4236;54.504;9.588;2023-01-31T06:06:29;101348.81;;;3.82;100.00
8398;BME280;4236;54.504;9.588;2023-01-31T06:08:57;101342.56;;;3.83;100.00
8398;BME280;4236;54.504;9.588;2023-01-31T06:11:25;101337.28;;;3.83;100.00
8398;BME280;4236;54.504;9.588;2023-01-31T06:13:53;101332.84;;;3.84;100.00
8398;BME280;4236;54.504;9.588;2023-01-31T06:16:23;101316.34;;;3.82;100.00
8398;BME280;4236;54.504;9.588;2023-01-31T06:18:51;101318.00;;;3.83;100.00
8398;BME280;4236;54.504;9.588;2023-01-31T06:21:20;101319.78;;;3.82;100.00
8398;BME280;4236;54.504;9.588;2023-01-31T06:23:49;101312.88;;;3.81;100.00
8398;BME280;4236;54.504;9.588;2023-01-31T06:26:17;101307.44;;;3.83;100.00
8398;BME280;4236;54.504;9.588;2023-01-31T06:28:45;101299.25;;;3.86;100.00
8398;BME280;4236;54.504;9.588;2023-01-31T06:31:13;101295.63;;;3.87;100.00
8398;BME280;4236;54.504;9.588;2023-01-31T06:33:40;101291.88;;;3.89;100.00
8398;BME280;4236;54.504;9.588;2023-01-31T06:36:13;101290.47;;;3.95;100.00
8398;BME280;4236;54.504;9.588;2023-01-31T06:38:49;101289.25;;;3.99;100.00
8398;BME280;4236;54.504;9.588;2023-01-31T06:41:17;101295.59;;;4.06;100.00
8398;BME280;4236;54.504;9.588;2023-01-31T06:43:45;101279.66;;;4.08;100.00
8398;BME280;4236;54.504;9.588;2023-01-31T06:46:12;101278.13;;;4.15;100.00
8398;BME280;4236;54.504;9.588;2023-01-31T06:48:40;101276.84;;;4.19;100.00
8398;BME280;4236;54.504;9.588;2023-01-31T06:51:09;101275.28;;;4.26;100.00
8398;BME280;4236;54.504;9.588;2023-01-31T06:53:37;101271.53;;;4.28;100.00
8398;BME280;4236;54.504;9.588;2023-01-31T06:56:07;101272.47;;;4.37;100.00
8398;BME280;4236;54.504;9.588;2023-01-31T06:58:34;101260.13;;;4.37;100.00
8398;BME280;4236;54.504;9.588;2023-01-31T07:01:05;101265.94;;;4.41;100.00
8398;BME280;4236;54.504;9.588;2023-01-31T07:03:33;101254.09;;;4.45;100.00
8398;BME280;4236;54.504;9.588;2023-01-31T07:06:01;101247.28;;;4.52;100.00
8398;BME280;4236;54.504;9.588;2023-01-31T07:08:30;101235.56;;;4.55;100.00
8398;BME280;4236;54.504;9.588;2023-01-31T07:11:01;101235.16;;;4.59;100.00
8398;BME280;4236;54.504;9.588;2023-01-31T07:13:31;101228.19;;;4.58;100.00
8398;BME280;4236;54.504;9.588;2023-01-31T07:15:58;101227.63;;;4.64;100.00
8398;BME280;4236;54.504;9.588;2023-01-31T07:18:26;101220.25;;;4.68;100.00
8398;BME280;4236;54.504;9.588;2023-01-31T07:20:54;101218.81;;;4.73;100.00
8398;BME280;4236;54.504;9.588;2023-01-31T07:23:21;101212.28;;;4.77;100.00
8398;BME280;4236;54.504;9.588;2023-01-31T07:25:49;101208.03;;;4.84;100.00
8398;BME280;4236;54.504;9.588;2023-01-31T07:28:17;101194.53;;;4.87;100.00
8398;BME280;4236;54.504;9.588;2023-01-31T07:30:46;101193.38;;;4.90;100.00
8398;BME280;4236;54.504;9.588;2023-01-31T07:33:14;101192.00;;;4.95;100.00
8398;BME280;4236;54.504;9.588;2023-01-31T07:35:42;101181.94;;;4.99;100.00
8398;BME280;4236;54.504;9.588;2023-01-31T07:38:09;101179.69;;;5.04;100.00
8398;BME280;4236;54.504;9.588;2023-01-31T07:40:37;101173.41;;;5.05;100.00
8398;BME280;4236;54.504;9.588;2023-01-31T07:43:05;101180.22;;;5.08;100.00
8398;BME280;4236;54.504;9.588;2023-01-31T07:45:33;101174.09;;;5.07;100.00
8398;BME280;4236;54.504;9.588;2023-01-31T07:48:03;101165.03;;;5.10;100.00
8398;BME280;4236;54.504;9.588;2023-01-31T07:50:31;101174.78;;;5.09;100.00
8398;BME280;4236;54.504;9.588;2023-01-31T07:52:59;101160.28;;;5.13;100.00
8398;BME280;4236;54.504;9.588;2023-01-31T07:55:27;101162.75;;;5.15;100.00
8398;BME280;4236;54.504;9.588;2023-01-31T07:57:55;101155.66;;;5.15;100.00
8398;BME280;4236;54.504;9.588;2023-01-31T08:00:22;101153.19;;;5.14;100.00
8398;BME280;4236;54.504;9.588;2023-01-31T08:03:22;101151.03;;;5.17;100.00
8398;BME280;4236;54.504;9.588;2023-01-31T08:06:01;101133.84;;;5.13;100.00
8398;BME280;4236;54.504;9.588;2023-01-31T08:08:29;101156.34;;;5.17;100.00
8398;BME280;4236;54.504;9.588;2023-01-31T08:10:57;101134.38;;;5.17;100.00
8398;BME280;4236;54.504;9.588;2023-01-31T08:13:25;101130.72;;;5.18;100.00
8398;BME280;4236;54.504;9.588;2023-01-31T08:15:53;101136.31;;;5.15;100.00
8398;BME280;4236;54.504;9.588;2023-01-31T08:18:22;101115.88;;;5.17;100.00
8398;BME280;4236;54.504;9.588;2023-01-31T08:20:50;101117.69;;;5.16;100.00
8398;BME280;4236;54.504;9.588;2023-01-31T08:23:17;101111.19;;;5.11;100.00
8398;BME280;4236;54.504;9.588;2023-01-31T08:25:45;101114.63;;;5.11;100.00
8398;BME280;4236;54.504;9.588;2023-01-31T08:28:13;101104.75;;;5.13;100.00
8398;BME280;4236;54.504;9.588;2023-01-31T08:30:42;101100.00;;;5.17;100.00
8398;BME280;4236;54.504;9.588;2023-01-31T08:33:23;101095.53;;;5.17;100.00
8398;BME280;4236;54.504;9.588;2023-01-31T08:35:51;101088.97;;;5.21;100.00
8398;BME280;4236;54.504;9.588;2023-01-31T08:38:18;101084.66;;;5.20;100.00
8398;BME280;4236;54.504;9.588;2023-01-31T08:40:46;101070.75;;;5.18;100.00
8398;BME280;4236;54.504;9.588;2023-01-31T08:43:15;101066.66;;;5.24;100.00
8398;BME280;4236;54.504;9.588;2023-01-31T08:45:44;101058.72;;;5.24;100.00
8398;BME280;4236;54.504;9.588;2023-01-31T08:48:12;101050.28;;;5.20;100.00
8398;BME280;4236;54.504;9.588;2023-01-31T08:50:41;101046.66;;;5.21;100.00
8398;BME280;4236;54.504;9.588;2023-01-31T08:53:09;101047.94;;;5.17;100.00
8398;BME280;4236;54.504;9.588;2023-01-31T08:55:37;101035.25;;;5.21;100.00
8398;BME280;4236;54.504;9.588;2023-01-31T08:58:05;101033.44;;;5.21;100.00
8398;BME280;4236;54.504;9.588;2023-01-31T09:00:32;101038.06;;;5.19;100.00
8398;BME280;4236;54.504;9.588;2023-01-31T09:03:00;101026.66;;;5.19;100.00
8398;BME280;4236;54.504;9.588;2023-01-31T09:05:30;101027.47;;;5.19;100.00
8398;BME280;4236;54.504;9.588;2023-01-31T09:08:00;101028.28;;;5.20;100.00
8398;BME280;4236;54.504;9.588;2023-01-31T09:10:28;101017.56;;;5.21;100.00
8398;BME280;4236;54.504;9.588;2023-01-31T09:12:57;101022.84;;;5.21;100.00
8398;BME280;4236;54.504;9.588;2023-01-31T09:15:25;101021.56;;;5.25;100.00
8398;BME280;4236;54.504;9.588;2023-01-31T09:17:54;101021.41;;;5.27;100.00
8398;BME280;4236;54.504;9.588;2023-01-31T09:20:21;101013.16;;;5.30;100.00
8398;BME280;4236;54.504;9.588;2023-01-31T09:22:49;101002.59;;;5.30;100.00
8398;BME280;4236;54.504;9.588;2023-01-31T09:25:18;100996.31;;;5.31;100.00
8398;BME280;4236;54.504;9.588;2023-01-31T09:28:03;100996.84;;;5.34;100.00
8398;BME280;4236;54.504;9.588;2023-01-31T09:30:31;100998.66;;;5.34;100.00
8398;BME280;4236;54.504;9.588;2023-01-31T09:32:58;100982.25;;;5.30;100.00
8398;BME280;4236;54.504;9.588;2023-01-31T09:35:27;100990.72;;;5.34;100.00
8398;BME280;4236;54.504;9.588;2023-01-31T09:37:54;100989.72;;;5.35;100.00
8398;BME280;4236;54.504;9.588;2023-01-31T09:40:25;100968.94;;;5.40;100.00
8398;BME280;4236;54.504;9.588;2023-01-31T09:42:57;100970.44;;;5.42;100.00
8398;BME280;4236;54.504;9.588;2023-01-31T09:45:29;100966.84;;;5.51;100.00
8398;BME280;4236;54.504;9.588;2023-01-31T09:48:00;100963.56;;;5.57;100.00
8398;BME280;4236;54.504;9.588;2023-01-31T09:50:33;100956.94;;;5.62;100.00
8398;BME280;4236;54.504;9.588;2023-01-31T09:53:02;100948.06;;;5.71;100.00
8398;BME280;4236;54.504;9.588;2023-01-31T09:55:39;100950.22;;;5.75;100.00
8398;BME280;4236;54.504;9.588;2023-01-31T09:58:17;100943.66;;;5.79;100.00
8398;BME280;4236;54.504;9.588;2023-01-31T10:00:50;100944.63;;;5.78;100.00
8398;BME280;4236;54.504;9.588;2023-01-31T10:03:43;100931.38;;;5.78;100.00
8398;BME280;4236;54.504;9.588;2023-01-31T10:06:19;100923.44;;;5.78;100.00
8398;BME280;4236;54.504;9.588;2023-01-31T10:08:51;100919.97;;;5.78;100.00
8398;BME280;4236;54.504;9.588;2023-01-31T10:11:30;100915.66;;;5.77;100.00
8398;BME280;4236;54.504;9.588;2023-01-31T10:14:00;100918.66;;;5.82;100.00
8398;BME280;4236;54.504;9.588;2023-01-31T10:16:35;100925.13;;;5.79;100.00
8398;BME280;4236;54.504;9.588;2023-01-31T10:19:07;100894.38;;;5.86;100.00
8398;BME280;4236;54.504;9.588;2023-01-31T10:21:39;100896.34;;;5.84;100.00
8398;BME280;4236;54.504;9.588;2023-01-31T10:24:12;100902.84;;;5.90;100.00
8398;BME280;4236;54.504;9.588;2023-01-31T10:26:45;100898.38;;;5.90;100.00
8398;BME280;4236;54.504;9.588;2023-01-31T10:29:19;100894.72;;;5.91;100.00
8398;BME280;4236;54.504;9.588;2023-01-31T10:31:55;100888.13;;;5.95;100.00
8398;BME280;4236;54.504;9.588;2023-01-31T10:34:27;100868.59;;;5.96;100.00
8398;BME280;4236;54.504;9.588;2023-01-31T10:36:59;100906.66;;;6.03;100.00
8398;BME280;4236;54.504;9.588;2023-01-31T10:39:32;100909.81;;;6.07;100.00
8398;BME280;4236;54.504;9.588;2023-01-31T10:42:13;100905.19;;;6.09;100.00
8398;BME280;4236;54.504;9.588;2023-01-31T10:44:46;100882.84;;;6.11;100.00
8398;BME280;4236;54.504;9.588;2023-01-31T10:47:18;100884.84;;;6.18;100.00
8398;BME280;4236;54.504;9.588;2023-01-31T10:49:47;100875.09;;;6.18;100.00
8398;BME280;4236;54.504;9.588;2023-01-31T10:52:40;100871.75;;;6.16;100.00
8398;BME280;4236;54.504;9.588;2023-01-31T10:58:11;100878.72;;;6.17;100.00
8398;BME280;4236;54.504;9.588;2023-01-31T11:00:40;100876.56;;;6.21;100.00
8398;BME280;4236;54.504;9.588;2023-01-31T11:03:10;100874.75;;;6.21;100.00
8398;BME280;4236;54.504;9.588;2023-01-31T11:05:43;100876.56;;;6.21;100.00
8398;BME280;4236;54.504;9.588;2023-01-31T11:08:21;100894.09;;;6.22;100.00
8398;BME280;4236;54.504;9.588;2023-01-31T11:10:53;100874.25;;;6.26;100.00
8398;BME280;4236;54.504;9.588;2023-01-31T11:13:23;100880.19;;;6.28;100.00
8398;BME280;4236;54.504;9.588;2023-01-31T11:15:52;100879.41;;;6.27;100.00
8398;BME280;4236;54.504;9.588;2023-01-31T11:18:32;100875.59;;;6.30;100.00
8398;BME280;4236;54.504;9.588;2023-01-31T11:21:02;100870.63;;;6.27;100.00
8398;BME280;4236;54.504;9.588;2023-01-31T11:23:32;100860.50;;;6.30;100.00
8398;BME280;4236;54.504;9.588;2023-01-31T11:26:01;100853.22;;;6.40;100.00
8398;BME280;4236;54.504;9.588;2023-01-31T11:28:34;100853.72;;;6.36;100.00
8398;BME280;4236;54.504;9.588;2023-01-31T11:31:05;100852.22;;;6.41;100.00
8398;BME280;4236;54.504;9.588;2023-01-31T11:33:38;100857.50;;;6.49;100.00
8398;BME280;4236;54.504;9.588;2023-01-31T11:36:07;100848.41;;;6.52;100.00
8398;BME280;4236;54.504;9.588;2023-01-31T11:38:36;100838.94;;;6.57;100.00
8398;BME280;4236;54.504;9.588;2023-01-31T11:41:24;100837.97;;;6.58;100.00
8398;BME280;4236;54.504;9.588;2023-01-31T11:44:07;100855.19;;;6.62;100.00
8398;BME280;4236;54.504;9.588;2023-01-31T11:46:43;100840.59;;;6.66;100.00
8398;BME280;4236;54.504;9.588;2023-01-31T11:49:13;100838.47;;;6.62;100.00
8398;BME280;4236;54.504;9.588;2023-01-31T11:51:43;100828.69;;;6.62;100.00
8398;BME280;4236;54.504;9.588;2023-01-31T11:54:16;100828.00;;;6.60;100.00
8398;BME280;4236;54.504;9.588;2023-01-31T11:56:45;100824.06;;;6.56;100.00
8398;BME280;4236;54.504;9.588;2023-01-31T11:59:19;100824.91;;;6.57;100.00
8398;BME280;4236;54.504;9.588;2023-01-31T12:01:50;100815.78;;;6.59;100.00
8398;BME280;4236;54.504;9.588;2023-01-31T12:04:20;100808.81;;;6.58;100.00
8398;BME280;4236;54.504;9.588;2023-01-31T12:06:58;100807.66;;;6.61;100.00
8398;BME280;4236;54.504;9.588;2023-01-31T12:09:30;100791.72;;;6.69;100.00
8398;BME280;4236;54.504;9.588;2023-01-31T12:12:21;100796.34;;;6.75;100.00
8398;BME280;4236;54.504;9.588;2023-01-31T12:14:54;100783.91;;;6.84;100.00
8398;BME280;4236;54.504;9.588;2023-01-31T12:17:28;100789.03;;;6.85;100.00
8398;BME280;4236;54.504;9.588;2023-01-31T12:20:07;100783.03;;;6.91;100.00
8398;BME280;4236;54.504;9.588;2023-01-31T12:23:01;100781.22;;;6.92;100.00
8398;BME280;4236;54.504;9.588;2023-01-31T12:25:52;100761.34;;;6.96;100.00
8398;BME280;4236;54.504;9.588;2023-01-31T12:28:32;100775.03;;;6.99;100.00
8398;BME280;4236;54.504;9.588;2023-01-31T12:31:27;100766.63;;;6.96;100.00
8398;BME280;4236;54.504;9.588;2023-01-31T12:34:09;100769.44;;;6.94;100.00
8398;BME280;4236;54.504;9.588;2023-01-31T12:36:46;100756.88;;;6.88;100.00
8398;BME280;4236;54.504;9.588;2023-01-31T12:39:34;100756.22;;;6.86;100.00
8398;BME280;4236;54.504;9.588;2023-01-31T12:42:21;100758.41;;;6.83;100.00
8398;BME280;4236;54.504;9.588;2023-01-31T12:45:01;100759.56;;;6.80;100.00
8398;BME280;4236;54.504;9.588;2023-01-31T12:48:01;100754.56;;;6.85;100.00
8398;BME280;4236;54.504;9.588;2023-01-31T12:50:36;100737.69;;;6.86;100.00
8398;BME280;4236;54.504;9.588;2023-01-31T12:53:31;100732.31;;;6.94;100.00
8398;BME280;4236;54.504;9.588;2023-01-31T12:56:15;100734.59;;;7.05;100.00
8398;BME280;4236;54.504;9.588;2023-01-31T12:58:50;100731.91;;;7.13;100.00
8398;BME280;4236;54.504;9.588;2023-01-31T13:01:45;100705.69;;;7.18;100.00
8398;BME280;4236;54.504;9.588;2023-01-31T13:04:28;100699.66;;;7.24;100.00
8398;BME280;4236;54.504;9.588;2023-01-31T13:06:58;100704.41;;;7.37;100.00
8398;BME280;4236;54.504;9.588;2023-01-31T13:09:30;100695.53;;;7.45;100.00
8398;BME280;4236;54.504;9.588;2023-01-31T13:12:03;100685.69;;;7.53;100.00
8398;BME280;4236;54.504;9.588;2023-01-31T13:14:38;100672.38;;;7.61;100.00
8398;BME280;4236;54.504;9.588;2023-01-31T13:17:10;100683.91;;;7.68;100.00
8398;BME280;4236;54.504;9.588;2023-01-31T13:19:44;100663.13;;;7.72;100.00
8398;BME280;4236;54.504;9.588;2023-01-31T13:22:18;100676.69;;;7.77;100.00
8398;BME280;4236;54.504;9.588;2023-01-31T13:24:49;100674.69;;;7.79;100.00
8398;BME280;4236;54.504;9.588;2023-01-31T13:27:23;100658.09;;;7.77;100.00
8398;BME280;4236;54.504;9.588;2023-01-31T13:29:56;100661.13;;;7.74;100.00
8398;BME280;4236;54.504;9.588;2023-01-31T13:32:28;100663.78;;;7.74;100.00
8398;BME280;4236;54.504;9.588;2023-01-31T13:35:05;100660.50;;;7.72;100.00
8398;BME280;4236;54.504;9.588;2023-01-31T13:37:38;100663.50;;;7.69;100.00
8398;BME280;4236;54.504;9.588;2023-01-31T13:40:17;100652.50;;;7.57;100.00
8398;BME280;4236;54.504;9.588;2023-01-31T13:42:45;100670.44;;;7.55;100.00
8398;BME280;4236;54.504;9.588;2023-01-31T13:45:20;100654.19;;;7.50;100.00
8398;BME280;4236;54.504;9.588;2023-01-31T13:47:51;100655.94;;;7.43;100.00
8398;BME280;4236;54.504;9.588;2023-01-31T13:50:32;100640.38;;;7.40;100.00